Time;durP1;ratioP1;P1;durP2;ratioP2;P2;SDS_P1;SDS_P2;PMS_P1;PMS_P2;Temp;Humidity;BMP_temperature;BMP_pressure;BME280_temperature;BME280_humidity;BME280_pressure;Samples;Min_cycle;Max_cycle;Signal;HPM_P1;HPM_P2
2022/05/06 00:01:38;;;;;;;25.67;14.80;;;12.40;99.90;;;;;;5045627;28;20025;-73
2022/05/06 00:04:04;;;;;;;28.98;17.27;;;12.30;99.90;;;;;;5043810;28;20033;-73
2022/05/06 00:06:30;;;;;;;27.58;16.90;;;12.30;99.90;;;;;;5051294;28;20437;-74
2022/05/06 00:08:57;;;;;;;24.45;16.40;;;12.40;99.90;;;;;;5043758;28;20528;-74
2022/05/06 00:11:24;;;;;;;26.00;17.33;;;12.30;99.90;;;;;;5045752;28;20037;-74
2022/05/06 00:13:52;;;;;;;28.42;17.17;;;12.30;99.90;;;;;;5034554;28;20036;-73
2022/05/06 00:16:22;;;;;;;24.45;16.77;;;12.30;99.90;;;;;;5033356;28;20045;-73
2022/05/06 00:18:48;;;;;;;29.60;17.65;;;12.30;99.90;;;;;;5039889;28;20021;-73
2022/05/06 00:21:14;;;;;;;34.45;17.60;;;12.30;99.90;;;;;;5053981;28;20504;-73
2022/05/06 00:23:40;;;;;;;27.67;17.40;;;12.30;99.90;;;;;;5054089;28;20025;-73
2022/05/06 00:26:07;;;;;;;24.60;17.08;;;12.30;99.90;;;;;;5052102;28;20468;-72
2022/05/06 00:28:33;;;;;;;23.77;15.73;;;12.30;99.90;;;;;;5053086;28;20021;-73
2022/05/06 00:31:00;;;;;;;21.50;14.68;;;12.30;99.90;;;;;;5049770;28;20040;-74
2022/05/06 00:33:26;;;;;;;26.27;17.02;;;12.30;99.90;;;;;;5048320;28;20112;-74
2022/05/06 00:35:56;;;;;;;28.13;16.92;;;12.20;99.90;;;;;;5042371;28;20461;-74
2022/05/06 00:38:22;;;;;;;27.42;17.95;;;12.30;99.90;;;;;;5045806;28;20041;-74
2022/05/06 00:40:47;;;;;;;23.23;15.73;;;12.20;99.90;;;;;;5054909;28;20071;-74
2022/05/06 00:43:13;;;;;;;22.15;15.68;;;12.20;99.90;;;;;;5058632;28;20400;-74
2022/05/06 00:45:53;;;;;;;29.48;18.35;;;12.20;99.90;;;;;;5058445;28;20055;-74
2022/05/06 00:48:22;;;;;;;30.23;18.02;;;12.20;99.90;;;;;;5057992;28;20032;-74
2022/05/06 00:50:49;;;;;;;28.85;18.45;;;12.20;99.90;;;;;;5052377;28;20048;-74
2022/05/06 00:53:15;;;;;;;33.28;21.02;;;12.20;99.90;;;;;;5053335;28;20031;-74
2022/05/06 00:55:42;;;;;;;30.98;19.23;;;12.30;99.90;;;;;;5052761;28;20083;-74
2022/05/06 00:58:08;;;;;;;33.75;20.58;;;12.30;99.90;;;;;;5050758;28;20104;-74
2022/05/06 01:00:33;;;;;;;23.88;17.33;;;12.30;99.90;;;;;;5053163;28;20521;-74
2022/05/06 01:03:00;;;;;;;23.38;16.95;;;12.20;99.90;;;;;;5052880;28;20029;-74
2022/05/06 01:05:26;;;;;;;28.77;18.80;;;12.20;99.90;;;;;;5052245;28;20071;-74
2022/05/06 01:07:52;;;;;;;30.92;19.85;;;12.20;99.90;;;;;;5051652;28;20114;-74
2022/05/06 01:10:20;;;;;;;25.73;17.38;;;12.20;99.90;;;;;;5053333;28;20060;-74
2022/05/06 01:12:46;;;;;;;31.10;20.08;;;12.20;99.90;;;;;;5051931;28;20502;-74
2022/05/06 01:15:20;;;;;;;31.15;21.48;;;12.20;99.90;;;;;;5049393;28;20044;-74
2022/05/06 01:17:50;;;;;;;32.47;20.10;;;12.20;99.90;;;;;;5053687;28;20365;-74
2022/05/06 01:20:17;;;;;;;36.85;20.85;;;12.20;99.90;;;;;;5052653;28;20024;-74
2022/05/06 01:22:50;;;;;;;31.55;20.00;;;12.20;99.90;;;;;;5052122;28;20040;-74
2022/05/06 01:25:17;;;;;;;27.73;18.52;;;12.20;99.90;;;;;;5052148;28;20044;-74
2022/05/06 01:27:51;;;;;;;27.63;19.13;;;12.20;99.90;;;;;;5053312;28;20107;-73
2022/05/06 01:30:29;;;;;;;28.50;18.98;;;12.20;99.90;;;;;;5033105;28;20029;-73
2022/05/06 01:32:57;;;;;;;30.10;19.83;;;12.10;99.90;;;;;;5051077;28;20106;-73
2022/05/06 01:35:26;;;;;;;32.97;19.08;;;12.10;99.90;;;;;;5053046;28;20040;-74
2022/05/06 01:37:54;;;;;;;31.77;19.85;;;12.10;99.90;;;;;;5052206;28;20033;-73
2022/05/06 01:40:21;;;;;;;30.33;18.50;;;12.10;99.90;;;;;;5049812;28;20519;-73
2022/05/06 01:42:50;;;;;;;30.25;18.13;;;12.10;99.90;;;;;;5053423;28;20474;-74
2022/05/06 01:45:18;;;;;;;29.70;20.02;;;12.10;99.90;;;;;;5051762;28;20021;-74
2022/05/06 01:47:44;;;;;;;34.45;21.08;;;12.10;99.90;;;;;;5051092;28;20025;-73
2022/05/06 01:50:12;;;;;;;30.38;20.45;;;12.10;99.90;;;;;;5053112;28;20051;-73
2022/05/06 01:52:40;;;;;;;32.20;19.80;;;12.10;99.90;;;;;;5052725;28;20033;-73
2022/05/06 01:55:08;;;;;;;33.75;19.83;;;12.10;99.90;;;;;;5049941;28;20033;-73
2022/05/06 01:57:34;;;;;;;25.40;17.92;;;12.10;99.90;;;;;;5033129;28;20057;-73
2022/05/06 02:00:00;;;;;;;32.55;19.23;;;12.10;99.90;;;;;;5035153;28;20060;-73
2022/05/06 02:02:25;;;;;;;25.38;17.13;;;12.10;99.90;;;;;;5049739;28;20048;-73
2022/05/06 02:07:35;;;;;;;26.95;17.30;;;12.00;99.90;;;;;;5052850;28;20113;-73
2022/05/06 02:10:01;;;;;;;30.38;16.73;;;12.00;99.90;;;;;;5050866;28;20120;-74
2022/05/06 02:12:26;;;;;;;32.80;20.00;;;12.00;99.90;;;;;;5051286;28;20414;-73
2022/05/06 02:14:52;;;;;;;33.28;20.38;;;12.00;99.90;;;;;;5052537;28;20101;-73
2022/05/06 02:17:18;;;;;;;28.65;18.15;;;12.00;99.90;;;;;;5050559;28;20523;-73
2022/05/06 02:19:43;;;;;;;28.27;18.45;;;12.00;99.90;;;;;;5049473;28;20523;-73
2022/05/06 02:22:09;;;;;;;28.80;18.20;;;12.00;99.90;;;;;;5052993;28;20029;-73
2022/05/06 02:24:35;;;;;;;25.80;17.45;;;12.00;99.90;;;;;;5052543;28;20056;-73
2022/05/06 02:27:00;;;;;;;29.40;19.23;;;12.00;99.90;;;;;;5049954;28;20033;-73
2022/05/06 02:29:26;;;;;;;28.65;18.25;;;12.00;99.90;;;;;;5052428;28;20029;-73
2022/05/06 02:34:36;;;;;;;25.83;16.90;;;12.00;99.90;;;;;;5050867;28;20068;-73
2022/05/06 02:37:01;;;;;;;32.75;19.00;;;11.90;99.90;;;;;;5052964;28;20056;-72
2022/05/06 02:39:27;;;;;;;23.02;16.63;;;12.00;99.90;;;;;;5051097;28;20538;-72
2022/05/06 02:41:53;;;;;;;25.77;18.40;;;12.00;99.90;;;;;;5050657;28;20106;-73
2022/05/06 02:44:18;;;;;;;25.65;17.60;;;12.00;99.90;;;;;;5053584;28;20056;-74
2022/05/06 02:46:44;;;;;;;26.23;18.30;;;12.00;99.90;;;;;;5056955;28;20032;-73
2022/05/06 02:49:10;;;;;;;23.55;14.70;;;12.00;99.90;;;;;;5061952;28;20025;-74
2022/05/06 02:51:36;;;;;;;25.88;17.17;;;12.00;99.90;;;;;;5059107;28;20462;-73
2022/05/06 02:54:01;;;;;;;30.45;18.92;;;11.90;99.90;;;;;;5055171;28;20029;-73
2022/05/06 02:56:27;;;;;;;28.90;17.33;;;12.00;99.90;;;;;;5056507;28;20463;-73
2022/05/06 02:58:53;;;;;;;24.27;17.65;;;12.00;99.90;;;;;;5054957;28;20021;-73
2022/05/06 03:01:18;;;;;;;22.45;16.48;;;12.00;99.90;;;;;;5053900;28;20036;-73
2022/05/06 03:03:44;;;;;;;21.58;15.00;;;12.00;99.90;;;;;;5059691;28;20485;-74
2022/05/06 03:06:10;;;;;;;22.92;15.85;;;11.90;99.90;;;;;;5058090;28;20032;-73
2022/05/06 03:08:36;;;;;;;22.58;16.25;;;11.90;99.90;;;;;;5053292;28;20047;-73
2022/05/06 03:11:02;;;;;;;25.83;15.70;;;11.90;99.90;;;;;;5055364;28;20676;-73
2022/05/06 03:13:28;;;;;;;30.55;16.90;;;11.90;99.90;;;;;;5055466;28;20068;-74
2022/05/06 03:15:54;;;;;;;23.92;15.88;;;11.90;99.90;;;;;;5053984;28;20052;-73
2022/05/06 03:18:20;;;;;;;24.13;15.50;;;11.90;99.90;;;;;;5053907;28;20397;-72
2022/05/06 03:20:46;;;;;;;22.67;16.73;;;11.90;99.90;;;;;;5053397;28;20389;-72
2022/05/06 03:23:15;;;;;;;25.83;16.17;;;11.90;99.90;;;;;;5055647;28;20385;-72
2022/05/06 03:25:41;;;;;;;26.80;17.27;;;11.90;99.90;;;;;;5034858;28;20471;-73
2022/05/06 03:28:10;;;;;;;22.67;15.90;;;11.90;99.90;;;;;;5033852;28;20095;-73
2022/05/06 03:30:44;;;;;;;31.95;17.08;;;11.90;99.90;;;;;;5055456;28;20032;-73
2022/05/06 03:33:12;;;;;;;26.83;17.33;;;11.90;99.90;;;;;;5054674;28;20120;-73
2022/05/06 03:35:38;;;;;;;23.83;15.48;;;11.90;99.90;;;;;;5053973;28;20078;-73
2022/05/06 03:38:05;;;;;;;23.83;16.25;;;11.90;99.90;;;;;;5052728;28;20357;-72
2022/05/06 03:40:32;;;;;;;23.13;16.02;;;11.90;99.90;;;;;;5055078;28;20127;-72
2022/05/06 03:42:58;;;;;;;25.73;16.33;;;11.90;99.90;;;;;;5054634;28;20076;-73
2022/05/06 03:45:24;;;;;;;24.98;15.65;;;11.90;99.90;;;;;;5051737;28;20025;-72
2022/05/06 03:47:49;;;;;;;23.27;16.83;;;11.80;99.90;;;;;;5055342;28;20074;-72
2022/05/06 03:52:59;;;;;;;19.17;15.43;;;11.80;99.90;;;;;;5055029;28;20198;-72
2022/05/06 03:55:25;;;;;;;24.70;15.43;;;11.80;99.90;;;;;;5053533;28;20108;-72
2022/05/06 03:57:51;;;;;;;23.50;15.55;;;11.90;99.90;;;;;;5052465;28;20028;-72
2022/05/06 04:00:17;;;;;;;21.35;15.13;;;11.80;99.90;;;;;;5054211;28;20108;-72
2022/05/06 04:02:43;;;;;;;21.08;15.73;;;11.80;99.90;;;;;;5053627;28;20076;-72
2022/05/06 04:05:09;;;;;;;22.20;14.55;;;11.90;99.90;;;;;;5054705;28;20025;-72
2022/05/06 04:07:35;;;;;;;23.15;16.75;;;11.80;99.90;;;;;;5054201;28;20036;-72
2022/05/06 04:10:01;;;;;;;24.15;15.10;;;11.80;99.90;;;;;;5052847;28;20029;-72
2022/05/06 04:12:27;;;;;;;23.35;15.20;;;11.80;99.90;;;;;;5052531;28;20040;-72
2022/05/06 04:14:52;;;;;;;20.08;15.18;;;11.80;99.90;;;;;;5054275;28;20025;-73
2022/05/06 04:17:20;;;;;;;21.80;15.30;;;11.80;99.90;;;;;;5052816;28;20025;-72
2022/05/06 04:25:19;;;;;;;23.17;14.85;;;11.70;99.90;;;;;;5051429;28;20080;-72
2022/05/06 04:27:45;;;;;;;18.48;14.40;;;11.80;99.90;;;;;;5054669;28;20036;-73
2022/05/06 04:30:11;;;;;;;20.92;15.07;;;11.70;99.90;;;;;;5053854;28;20025;-73
2022/05/06 04:32:37;;;;;;;22.00;16.70;;;11.70;99.90;;;;;;5051556;28;20060;-73
2022/05/06 04:35:05;;;;;;;21.50;15.15;;;11.80;99.90;;;;;;5054019;28;20453;-73
2022/05/06 04:37:31;;;;;;;20.40;14.82;;;11.80;99.90;;;;;;5054396;28;20385;-73
2022/05/06 04:39:58;;;;;;;23.77;15.70;;;11.80;99.90;;;;;;5052496;28;20052;-73
2022/05/06 04:42:24;;;;;;;21.95;17.05;;;11.80;99.90;;;;;;5051501;28;20029;-72
2022/05/06 04:44:49;;;;;;;25.42;16.50;;;11.80;99.90;;;;;;5054170;28;20497;-73
2022/05/06 04:47:15;;;;;;;22.45;16.15;;;11.80;99.90;;;;;;5054043;28;20025;-73
2022/05/06 04:49:40;;;;;;;23.52;15.65;;;11.80;99.90;;;;;;5058748;28;20068;-74
2022/05/06 04:52:06;;;;;;;23.90;16.83;;;11.80;99.90;;;;;;5057098;28;20032;-75
2022/05/06 04:54:32;;;;;;;22.20;16.38;;;11.80;99.90;;;;;;5068148;28;20051;-74
2022/05/06 04:56:57;;;;;;;22.50;15.80;;;11.80;99.90;;;;;;5055042;28;20025;-73
2022/05/06 04:59:23;;;;;;;27.88;17.08;;;11.80;99.90;;;;;;5053426;28;20083;-73
2022/05/06 05:01:49;;;;;;;21.42;15.98;;;11.80;99.90;;;;;;5051689;28;20036;-74
2022/05/06 05:04:16;;;;;;;25.40;16.30;;;11.80;99.90;;;;;;5049734;28;20036;-73
2022/05/06 05:06:42;;;;;;;20.83;15.55;;;11.80;99.90;;;;;;5053597;28;20385;-72
2022/05/06 05:09:08;;;;;;;20.25;15.40;;;11.70;99.90;;;;;;5053455;28;20025;-73
2022/05/06 05:11:34;;;;;;;20.10;15.85;;;11.70;99.90;;;;;;5022964;28;20041;-73
2022/05/06 05:14:02;;;;;;;24.70;15.15;;;11.80;99.90;;;;;;5045311;28;20068;-73
2022/05/06 05:16:31;;;;;;;22.73;15.85;;;11.80;99.90;;;;;;5053920;28;20389;-73
2022/05/06 05:18:56;;;;;;;21.17;14.63;;;11.70;99.90;;;;;;5052308;28;20032;-73
2022/05/06 05:21:22;;;;;;;21.30;14.55;;;11.70;99.90;;;;;;5053671;28;20033;-72
2022/05/06 05:23:48;;;;;;;21.45;14.73;;;11.80;99.90;;;;;;5051262;28;20025;-74
2022/05/06 05:26:13;;;;;;;19.70;15.50;;;11.80;99.90;;;;;;5039726;28;20057;-74
2022/05/06 05:28:39;;;;;;;18.45;14.57;;;11.80;99.90;;;;;;5047451;28;20485;-75
2022/05/06 05:31:05;;;;;;;23.95;16.63;;;11.90;99.90;;;;;;5043966;28;20025;-74
2022/05/06 05:33:32;;;;;;;19.17;14.88;;;11.90;99.90;;;;;;5042746;28;20079;-77
2022/05/06 05:35:57;;;;;;;20.30;14.20;;;11.90;99.90;;;;;;5043943;28;20029;-74
2022/05/06 05:38:23;;;;;;;26.67;16.25;;;11.80;99.90;;;;;;5044493;28;20044;-75
2022/05/06 05:40:49;;;;;;;21.05;15.07;;;11.70;99.90;;;;;;5052933;28;20040;-76
2022/05/06 05:48:43;;;;;;;20.60;15.35;;;11.80;99.90;;;;;;5047261;28;20036;-72
2022/05/06 05:51:09;;;;;;;19.20;14.15;;;11.70;99.90;;;;;;5049008;28;20029;-75
2022/05/06 05:53:35;;;;;;;16.50;13.93;;;11.60;99.90;;;;;;5049470;28;20082;-73
2022/05/06 05:56:00;;;;;;;22.90;15.35;;;11.60;99.90;;;;;;5046653;28;20025;-75
2022/05/06 05:58:26;;;;;;;23.95;14.55;;;11.60;99.90;;;;;;5053035;28;20155;-73
2022/05/06 06:00:52;;;;;;;19.75;14.23;;;11.60;99.90;;;;;;5052339;28;20035;-74
2022/05/06 06:03:18;;;;;;;19.33;14.65;;;11.60;99.90;;;;;;5050887;28;20033;-80
2022/05/06 06:05:44;;;;;;;21.70;14.55;;;11.60;99.90;;;;;;5034459;28;20071;-80
2022/05/06 06:08:10;;;;;;;22.83;15.45;;;11.60;99.90;;;;;;5051726;28;20029;-85
2022/05/06 06:10:36;;;;;;;21.02;14.02;;;11.60;99.90;;;;;;5051474;28;20025;-85
2022/05/06 06:13:04;;;;;;;16.65;13.50;;;11.60;99.90;;;;;;5051698;28;20036;-74
2022/05/06 06:15:30;;;;;;;19.60;14.52;;;11.70;99.90;;;;;;5050850;28;20029;-73
2022/05/06 06:17:56;;;;;;;21.42;14.48;;;11.70;99.90;;;;;;5051188;28;20040;-72
2022/05/06 06:20:23;;;;;;;21.23;13.55;;;11.70;99.90;;;;;;5050983;28;20025;-73
2022/05/06 06:22:50;;;;;;;20.40;14.00;;;11.70;99.90;;;;;;5048277;28;20452;-73
2022/05/06 06:25:15;;;;;;;18.00;13.73;;;11.80;99.90;;;;;;5055514;28;20523;-71
2022/05/06 06:27:43;;;;;;;19.65;14.70;;;11.80;99.90;;;;;;5055735;28;20029;-74
2022/05/06 06:30:10;;;;;;;22.05;14.85;;;12.00;99.90;;;;;;5054577;28;20021;-74
2022/05/06 06:32:35;;;;;;;23.27;14.40;;;12.00;99.90;;;;;;5053943;28;20039;-74
2022/05/06 06:35:01;;;;;;;19.70;13.52;;;12.00;99.90;;;;;;5055404;28;20025;-76
2022/05/06 06:37:27;;;;;;;20.95;14.27;;;11.90;99.90;;;;;;5053442;28;20040;-73
2022/05/06 06:39:53;;;;;;;20.52;14.15;;;12.00;99.90;;;;;;5054282;28;20545;-76
2022/05/06 06:42:19;;;;;;;17.75;13.15;;;12.00;99.90;;;;;;5049486;28;20123;-74
2022/05/06 06:44:44;;;;;;;19.45;12.98;;;12.00;99.90;;;;;;5054812;28;20041;-75
2022/05/06 06:47:11;;;;;;;21.15;13.15;;;11.90;99.90;;;;;;5054284;28;20488;-74
2022/05/06 06:49:37;;;;;;;18.58;12.88;;;11.90;99.90;;;;;;5034149;28;20029;-74
2022/05/06 06:52:06;;;;;;;15.95;12.52;;;12.00;99.90;;;;;;5049374;28;20036;-75
2022/05/06 06:54:33;;;;;;;18.00;11.30;;;12.00;99.90;;;;;;5053687;28;20052;-74
2022/05/06 06:56:59;;;;;;;14.90;11.35;;;12.00;99.90;;;;;;5053839;28;20029;-74
2022/05/06 06:59:25;;;;;;;18.35;12.00;;;12.00;99.90;;;;;;5053441;28;20037;-74
2022/05/06 07:01:50;;;;;;;18.13;11.77;;;12.10;99.90;;;;;;5056183;28;20060;-75
2022/05/06 07:04:16;;;;;;;12.55;10.30;;;12.10;99.90;;;;;;5063321;28;20052;-74
2022/05/06 07:12:10;;;;;;;15.70;11.85;;;12.30;99.90;;;;;;5056941;28;20133;-75
2022/05/06 07:14:36;;;;;;;17.35;11.23;;;12.30;99.90;;;;;;5053665;28;20505;-74
2022/05/06 07:17:04;;;;;;;14.40;9.98;;;12.30;99.90;;;;;;5053702;28;20082;-75
2022/05/06 07:19:30;;;;;;;17.95;10.10;;;12.40;99.90;;;;;;5053725;28;20021;-74
2022/05/06 07:21:56;;;;;;;15.35;9.68;;;12.40;99.90;;;;;;5053986;28;20462;-74
2022/05/06 07:24:24;;;;;;;19.80;11.15;;;12.50;99.90;;;;;;5053201;28;20036;-75
2022/05/06 07:26:50;;;;;;;17.45;11.13;;;12.50;99.90;;;;;;5053681;28;20059;-75
2022/05/06 07:29:16;;;;;;;14.45;10.45;;;12.50;99.90;;;;;;5053798;28;20053;-75
2022/05/06 07:31:43;;;;;;;13.65;9.85;;;12.50;99.90;;;;;;5053557;28;20081;-75
2022/05/06 07:34:12;;;;;;;12.55;9.82;;;12.50;99.90;;;;;;5052925;28;20029;-75
2022/05/06 07:36:41;;;;;;;19.15;10.68;;;12.50;99.90;;;;;;5052952;28;20033;-74
2022/05/06 07:39:11;;;;;;;12.07;9.18;;;12.60;99.90;;;;;;5052152;28;20462;-74
2022/05/06 07:41:38;;;;;;;14.18;9.52;;;12.50;99.90;;;;;;5053272;28;20041;-73
2022/05/06 07:44:04;;;;;;;16.05;9.48;;;12.60;99.90;;;;;;5053969;28;20163;-74
2022/05/06 07:46:31;;;;;;;12.70;9.10;;;12.60;99.90;;;;;;5052854;28;20037;-74
2022/05/06 07:48:56;;;;;;;13.10;8.88;;;12.60;99.90;;;;;;5053325;28;20035;-73
2022/05/06 07:51:22;;;;;;;11.23;8.65;;;12.70;99.90;;;;;;5053201;28;20444;-73
2022/05/06 07:53:51;;;;;;;14.45;8.65;;;12.70;99.90;;;;;;5053011;28;20098;-73
2022/05/06 07:56:17;;;;;;;13.30;9.18;;;12.80;99.90;;;;;;5053107;28;20021;-73
2022/05/06 07:58:43;;;;;;;16.30;8.23;;;12.80;99.90;;;;;;5052094;28;20025;-74
2022/05/06 08:01:11;;;;;;;18.48;8.38;;;12.70;99.90;;;;;;5052792;28;20480;-74
2022/05/06 08:06:21;;;;;;;11.80;8.75;;;12.80;99.90;;;;;;5052955;28;20055;-74
2022/05/06 08:08:47;;;;;;;11.75;7.97;;;12.80;99.90;;;;;;5052507;28;20065;-74
2022/05/06 08:11:13;;;;;;;14.68;9.10;;;12.90;99.90;;;;;;5053355;28;20049;-74
2022/05/06 08:13:39;;;;;;;11.80;8.30;;;13.00;99.90;;;;;;5052212;28;20036;-74
2022/05/06 08:16:05;;;;;;;11.82;7.95;;;13.10;99.90;;;;;;5053260;28;20136;-74
2022/05/06 08:18:30;;;;;;;16.92;8.35;;;13.10;99.90;;;;;;5051956;28;20109;-74
2022/05/06 08:20:56;;;;;;;18.50;8.50;;;13.10;99.90;;;;;;5052864;28;20112;-74
2022/05/06 08:23:23;;;;;;;14.05;8.38;;;13.20;99.90;;;;;;5051845;28;20053;-74
2022/05/06 08:25:53;;;;;;;13.98;7.82;;;13.30;99.90;;;;;;5052229;28;20083;-74
2022/05/06 08:28:19;;;;;;;14.27;8.50;;;13.30;99.90;;;;;;5052540;28;20032;-74
2022/05/06 08:30:48;;;;;;;14.52;8.60;;;13.30;99.90;;;;;;5052238;28;20119;-74
2022/05/06 08:33:15;;;;;;;11.17;8.07;;;13.50;99.90;;;;;;5052824;28;20033;-74
2022/05/06 08:35:41;;;;;;;10.63;7.32;;;13.50;99.90;;;;;;5052048;28;20031;-74
2022/05/06 08:38:08;;;;;;;10.63;8.18;;;13.60;99.90;;;;;;5052758;28;20458;-74
2022/05/06 08:40:35;;;;;;;9.98;8.02;;;13.60;99.90;;;;;;5051188;28;20398;-74
2022/05/06 08:43:01;;;;;;;12.75;7.90;;;13.70;99.90;;;;;;5052318;28;20428;-74
2022/05/06 08:51:00;;;;;;;16.48;7.53;;;13.80;99.90;;;;;;5052613;28;20040;-74
2022/05/06 08:53:37;;;;;;;10.95;6.93;;;13.80;99.90;;;;;;5043790;28;20101;-74
2022/05/06 08:56:03;;;;;;;15.40;8.75;;;13.90;99.90;;;;;;5036627;28;20119;-74
2022/05/06 08:58:34;;;;;;;11.48;7.55;;;13.90;99.90;;;;;;5051100;28;20025;-74
2022/05/06 09:01:11;;;;;;;9.18;6.90;;;14.00;99.90;;;;;;5052119;28;20040;-74
2022/05/06 09:03:41;;;;;;;13.70;7.97;;;14.10;99.90;;;;;;5051220;28;20041;-74
2022/05/06 09:06:25;;;;;;;10.73;6.63;;;14.20;99.90;;;;;;5052124;28;20398;-74
2022/05/06 09:08:52;;;;;;;11.40;7.38;;;14.20;99.90;;;;;;5035640;28;20029;-75
2022/05/06 09:12:40;;;;;;;10.27;7.10;;;14.30;99.90;;;;;;5051800;28;20083;-74
2022/05/06 09:14:07;;;;;;;9.55;6.65;;;14.30;99.90;;;;;;5051466;28;20067;-74
2022/05/06 09:16:46;;;;;;;12.00;7.10;;;14.30;99.90;;;;;;5051057;28;20021;-73
2022/05/06 09:19:23;;;;;;;10.70;6.75;;;14.40;99.90;;;;;;5053439;28;20024;-74
2022/05/06 09:22:11;;;;;;;9.60;6.80;;;14.40;99.90;;;;;;5055934;28;20024;-73
2022/05/06 09:24:38;;;;;;;13.30;7.32;;;14.50;99.90;;;;;;5054224;28;20033;-73
2022/05/06 09:27:30;;;;;;;8.68;6.93;;;14.60;99.90;;;;;;5061943;28;20421;-73
2022/05/06 09:29:56;;;;;;;14.52;6.78;;;14.70;99.90;;;;;;5047399;28;20474;-73
2022/05/06 09:32:26;;;;;;;12.30;7.28;;;14.70;99.90;;;;;;5051574;28;20029;-74
2022/05/06 09:35:13;;;;;;;10.18;7.53;;;14.80;99.90;;;;;;5051654;28;20108;-74
2022/05/06 09:37:44;;;;;;;10.10;6.60;;;15.10;99.90;;;;;;5050704;28;20039;-75
2022/05/06 09:40:12;;;;;;;12.73;6.15;;;15.10;99.90;;;;;;5033038;28;20441;-75
2022/05/06 09:42:43;;;;;;;12.55;7.72;;;15.10;99.90;;;;;;5050416;28;20449;-74
2022/05/06 09:45:11;;;;;;;10.35;7.32;;;15.20;99.90;;;;;;5051506;28;20060;-74
2022/05/06 09:47:37;;;;;;;13.77;7.05;;;15.20;99.90;;;;;;5050234;28;20371;-74
2022/05/06 09:50:05;;;;;;;12.32;7.45;;;15.20;99.90;;;;;;5051343;28;20385;-75
2022/05/06 09:52:31;;;;;;;13.40;6.55;;;15.30;99.90;;;;;;5050899;28;20044;-75
2022/05/06 09:54:57;;;;;;;18.92;7.00;;;15.50;99.90;;;;;;5051740;28;20029;-74
2022/05/06 09:57:23;;;;;;;11.70;6.97;;;15.70;99.90;;;;;;5051677;28;20108;-75
2022/05/06 09:59:50;;;;;;;11.50;7.05;;;15.80;99.90;;;;;;5055466;28;20021;-73
2022/05/06 10:02:17;;;;;;;11.45;6.40;;;15.80;99.90;;;;;;5055627;28;20025;-74
2022/05/06 10:04:43;;;;;;;10.82;5.75;;;15.90;99.90;;;;;;5054914;28;20037;-73
2022/05/06 10:07:14;;;;;;;9.43;6.28;;;16.00;99.90;;;;;;5055705;28;20567;-74
2022/05/06 10:09:59;;;;;;;9.45;6.18;;;16.10;99.90;;;;;;5054693;28;20055;-76
2022/05/06 10:12:29;;;;;;;10.43;6.55;;;16.30;99.90;;;;;;5055202;28;20128;-75
2022/05/06 10:14:56;;;;;;;14.70;7.53;;;16.50;99.90;;;;;;5055491;28;20025;-75
2022/05/06 10:17:54;;;;;;;13.10;6.70;;;16.60;99.90;;;;;;5054882;28;20117;-74
2022/05/06 10:20:38;;;;;;;9.68;6.68;;;16.80;99.90;;;;;;5000745;28;20547;-74
2022/05/06 10:23:08;;;;;;;9.90;6.63;;;16.90;99.90;;;;;;5055459;28;20117;-73
2022/05/06 10:25:43;;;;;;;14.23;7.43;;;16.90;99.90;;;;;;5053891;28;20029;-73
2022/05/06 10:34:18;;;;;;;8.88;6.60;;;17.70;99.90;;;;;;5055217;28;20110;-73
2022/05/06 10:36:45;;;;;;;11.35;6.90;;;18.00;99.90;;;;;;5053795;28;20032;-73
2022/05/06 10:39:37;;;;;;;10.80;6.53;;;18.20;99.70;;;;;;5054426;28;20504;-75
2022/05/06 10:42:16;;;;;;;12.70;7.10;;;18.10;99.10;;;;;;5050005;28;20393;-73
2022/05/06 10:44:48;;;;;;;11.05;6.25;;;18.20;99.10;;;;;;5036387;28;20637;-73
2022/05/06 10:47:16;;;;;;;11.93;6.78;;;18.30;98.30;;;;;;5054777;28;20033;-73
2022/05/06 10:49:43;;;;;;;13.43;7.63;;;18.50;98.90;;;;;;5054075;28;20021;-75
2022/05/06 10:52:23;;;;;;;9.18;5.75;;;18.70;96.90;;;;;;5054781;28;20071;-74
2022/05/06 10:54:58;;;;;;;8.88;5.90;;;18.90;97.10;;;;;;5039300;28;20041;-75
2022/05/06 10:57:26;;;;;;;9.68;6.20;;;19.00;96.80;;;;;;5048828;28;20033;-73
2022/05/06 11:00:02;;;;;;;8.02;6.05;;;19.20;96.20;;;;;;5056476;28;20374;-74
2022/05/06 11:02:29;;;;;;;6.03;5.15;;;19.30;94.10;;;;;;5054846;28;20036;-74
2022/05/06 11:05:03;;;;;;;8.65;5.82;;;19.30;94.50;;;;;;5055938;28;20053;-73
2022/05/06 11:07:30;;;;;;;9.13;6.70;;;19.40;93.50;;;;;;5055706;28;20032;-76
2022/05/06 11:09:59;;;;;;;10.20;5.70;;;19.50;93.30;;;;;;5052969;28;20047;-80
2022/05/06 11:12:41;;;;;;;11.77;6.15;;;19.70;93.40;;;;;;5053226;28;20029;-71
2022/05/06 11:15:15;;;;;;;8.40;5.15;;;19.90;93.20;;;;;;5053981;28;20130;-73
2022/05/06 11:17:45;;;;;;;8.63;4.90;;;20.00;91.30;;;;;;5053123;28;20037;-74
2022/05/06 11:20:40;;;;;;;8.45;5.25;;;20.10;90.50;;;;;;5054169;28;20021;-74
2022/05/06 11:23:11;;;;;;;6.55;4.65;;;20.20;87.70;;;;;;5024113;28;20033;-71
2022/05/06 11:25:44;;;;;;;7.97;5.05;;;20.30;88.00;;;;;;5053357;28;20167;-81
2022/05/06 11:28:13;;;;;;;8.60;5.57;;;;;;;;;;5053298;28;20504;-75
2022/05/06 11:30:42;;;;;;;9.70;4.78;;;;;;;;;;5053324;28;20021;-77
2022/05/06 11:33:08;;;;;;;6.45;5.03;;;;;;;;;;5054663;28;20025;-74
2022/05/06 11:35:45;;;;;;;6.63;4.75;;;20.70;78.80;;;;;;5053749;28;20488;-73
2022/05/06 11:38:11;;;;;;;9.27;4.75;;;20.40;78.10;;;;;;5054624;28;20036;-76
2022/05/06 11:40:37;;;;;;;7.35;5.40;;;20.20;79.50;;;;;;5053636;28;20057;-76
2022/05/06 11:43:17;;;;;;;6.88;4.60;;;20.00;77.80;;;;;;5054207;28;20485;-78
2022/05/06 11:48:43;;;;;;;5.32;3.97;;;20.10;79.80;;;;;;5035160;28;20406;-79
2022/05/06 11:51:11;;;;;;;10.55;5.22;;;20.20;79.20;;;;;;5049359;28;20021;-78
2022/05/06 11:53:40;;;;;;;7.88;4.68;;;20.00;78.90;;;;;;5055955;28;20025;-81
2022/05/06 11:56:07;;;;;;;7.47;4.50;;;19.70;80.20;;;;;;5057652;28;20446;-79
2022/05/06 11:58:36;;;;;;;7.70;4.50;;;19.80;81.80;;;;;;5055664;28;20029;-80
2022/05/06 12:01:01;;;;;;;8.25;4.70;;;19.70;80.90;;;;;;5053067;28;20025;-79
2022/05/06 12:03:28;;;;;;;7.85;4.70;;;19.70;83.30;;;;;;5052274;28;20048;-80
2022/05/06 12:06:08;;;;;;;10.10;5.20;;;19.70;80.40;;;;;;5055706;28;20064;-80
2022/05/06 12:08:36;;;;;;;10.18;4.95;;;19.60;79.40;;;;;;5033206;28;20029;-80
2022/05/06 12:11:07;;;;;;;7.35;4.90;;;19.50;80.40;;;;;;5047204;28;20048;-79
2022/05/06 12:13:34;;;;;;;8.15;5.00;;;19.40;78.90;;;;;;5053750;28;20701;-82
2022/05/06 12:16:14;;;;;;;7.25;5.07;;;19.30;78.60;;;;;;5053828;28;20043;-81
2022/05/06 12:18:58;;;;;;;8.95;4.85;;;19.40;78.90;;;;;;5054943;28;20910;-79
2022/05/06 12:21:27;;;;;;;9.60;4.85;;;19.50;78.60;;;;;;5031267;28;20092;-79
2022/05/06 12:24:00;;;;;;;8.18;5.30;;;19.60;78.10;;;;;;5052735;28;20036;-80
2022/05/06 12:26:31;;;;;;;12.32;6.07;;;19.50;76.60;;;;;;5053288;28;20078;-76
2022/05/06 12:28:58;;;;;;;9.80;4.85;;;19.50;76.40;;;;;;5035924;28;20040;-75
2022/05/06 12:31:41;;;;;;;8.15;4.70;;;19.50;77.30;;;;;;5051855;28;20024;-76
2022/05/06 12:34:08;;;;;;;8.05;4.57;;;19.30;76.40;;;;;;5053041;28;20036;-74
2022/05/06 12:36:38;;;;;;;7.75;4.70;;;19.20;77.40;;;;;;5051972;28;20475;-75
2022/05/06 12:39:18;;;;;;;8.05;4.88;;;19.20;79.80;;;;;;5052998;28;20049;-74
2022/05/06 12:41:43;;;;;;;9.77;4.80;;;19.10;77.20;;;;;;5051914;28;20037;-75
2022/05/06 12:44:18;;;;;;;6.35;3.92;;;19.00;76.90;;;;;;5052811;28;20128;-76
2022/05/06 12:46:44;;;;;;;9.68;4.03;;;19.10;78.60;;;;;;5052004;28;20655;-75
2022/05/06 12:51:55;;;;;;;6.55;4.43;;;19.30;77.70;;;;;;5052615;28;20508;-76
2022/05/06 12:54:22;;;;;;;14.13;4.22;;;19.30;77.50;;;;;;5052544;28;20029;-74
2022/05/06 12:56:48;;;;;;;8.02;4.72;;;19.30;77.70;;;;;;5033376;28;20347;-75
2022/05/06 12:59:14;;;;;;;10.15;5.72;;;19.40;77.20;;;;;;5051790;28;20078;-75
2022/05/06 13:01:40;;;;;;;7.35;5.40;;;19.50;76.50;;;;;;5053446;28;20090;-75
2022/05/06 13:04:06;;;;;;;10.85;5.18;;;19.70;76.80;;;;;;5052420;28;20029;-81
2022/05/06 13:06:32;;;;;;;8.02;4.57;;;19.90;75.40;;;;;;5034117;28;20377;-80
2022/05/06 13:09:00;;;;;;;9.15;5.13;;;19.80;75.70;;;;;;5052640;28;20029;-80
2022/05/06 13:11:27;;;;;;;6.78;4.40;;;19.90;76.00;;;;;;5051502;28;20112;-81
2022/05/06 13:13:52;;;;;;;7.72;4.68;;;20.00;75.60;;;;;;5052662;28;20036;-78
2022/05/06 13:16:18;;;;;;;10.02;4.47;;;20.20;75.80;;;;;;5052781;28;20021;-81
2022/05/06 13:18:44;;;;;;;7.25;3.90;;;20.30;76.20;;;;;;5052427;28;20021;-82
2022/05/06 13:21:10;;;;;;;6.65;4.35;;;20.30;78.00;;;;;;5052655;28;20032;-81
2022/05/06 13:23:37;;;;;;;8.35;4.57;;;20.40;77.20;;;;;;5051555;28;20025;-75